| time (UTC) | temp F | wind direction | speed knots | gust knots | rain 1hr in | rain 24hr in | rain mn in | humidity % | barometer mb |
| 20260507072107 | 61 | 0.0 | 0.9 | 0.00 | 0.00 | 0.00 | 87 | 1017.4 | |
| 20260507071122 | 61 | 353 | 0.0 | 0.9 | 0.00 | 0.00 | 0.00 | 87 | 1017.4 |
| 20260507070109 | 61 | 314 | 0.0 | 0.9 | 0.00 | 0.00 | 0.00 | 86 | 1017.4 |
| 20260507065019 | 61 | 341 | 0.0 | 0.9 | 0.00 | 0.00 | 0.00 | 86 | 1017.5 |
| 20260507064138 | 61 | 312 | 0.0 | 0.9 | 0.00 | 0.00 | 0.00 | 85 | 1017.5 |
| 20260507063045 | 62 | 319 | 0.0 | 0.9 | 0.00 | 0.00 | 0.00 | 84 | 1017.5 |
| 20260507062108 | 62 | 289 | 0.0 | 0.9 | 0.00 | 0.00 | 0.00 | 84 | 1017.5 |
| 20260507061020 | 62 | 0.0 | 0.9 | 0.00 | 0.00 | 0.00 | 84 | 1017.5 | |
| 20260507060033 | 62 | 309 | 0.0 | 0.9 | 0.00 | 0.00 | 0.00 | 85 | 1017.5 |
| 20260507055020 | 61 | 29 | 0.0 | 0.9 | 0.00 | 0.00 | 0.00 | 87 | 1017.5 |
| 20260507054044 | 62 | 0.0 | 0.9 | 0.00 | 0.00 | 0.00 | 90 | 1017.6 | |
| 20260507053041 | 61 | 0.0 | 0.9 | 0.00 | 0.00 | 0.00 | 90 | 1017.5 | |
| 20260507052036 | 61 | 97 | 0.9 | 0.9 | 0.00 | 0.00 | 0.00 | 90 | 1017.5 |
| 20260507051109 | 62 | 103 | 0.9 | 1.7 | 0.00 | 0.00 | 0.00 | 90 | 1017.5 |
| 20260507050055 | 62 | 115 | 0.9 | 1.7 | 0.00 | 0.00 | 0.00 | 89 | 1017.5 |
| 20260507045034 | 63 | 105 | 0.9 | 1.7 | 0.00 | 0.00 | 0.00 | 87 | 1017.5 |
| 20260507044152 | 63 | 102 | 0.0 | 0.9 | 0.00 | 0.00 | 0.00 | 84 | 1017.4 |
| 20260507043100 | 63 | 276 | 0.0 | 0.9 | 0.00 | 0.00 | 0.00 | 82 | 1017.4 |
| 20260507042032 | 64 | 3 | 0.0 | 0.9 | 0.00 | 0.00 | 0.00 | 81 | 1017.3 |
| 20260507041103 | 64 | 304 | 0.0 | 1.7 | 0.00 | 0.00 | 0.00 | 80 | 1017.2 |
| 20260507040032 | 64 | 167 | 0.0 | 0.9 | 0.00 | 0.00 | 0.00 | 79 | 1017.2 |
| 20260507035038 | 64 | 314 | 0.9 | 1.7 | 0.00 | 0.00 | 0.00 | 77 | 1017.0 |
| 20260507034101 | 64 | 266 | 0.0 | 0.9 | 0.00 | 0.00 | 0.00 | 75 | 1016.9 |
| 20260507033042 | 65 | 239 | 0.9 | 1.7 | 0.00 | 0.00 | 0.00 | 74 | 1016.9 |
| 20260507032026 | 65 | 142 | 0.9 | 0.9 | 0.00 | 0.00 | 0.00 | 72 | 1016.7 |
| 20260507031109 | 65 | 278 | 0.9 | 0.9 | 0.00 | 0.00 | 0.00 | 72 | 1016.6 |
| 20260507030054 | 65 | 295 | 0.9 | 0.9 | 0.00 | 0.00 | 0.00 | 74 | 1016.6 |
| 20260507025024 | 66 | 269 | 0.9 | 1.7 | 0.00 | 0.00 | 0.00 | 73 | 1016.5 |
| 20260507024019 | 66 | 299 | 0.9 | 1.7 | 0.00 | 0.00 | 0.00 | 72 | 1016.4 |
| 20260507023035 | 65 | 307 | 0.0 | 1.7 | 0.00 | 0.00 | 0.00 | 73 | 1016.3 |
| 20260507022042 | 65 | 247 | 0.0 | 0.9 | 0.00 | 0.00 | 0.00 | 80 | 1016.3 |
| 20260507021053 | 65 | 118 | 0.9 | 2.6 | 0.00 | 0.00 | 0.00 | 82 | 1016.2 |
| 20260507020041 | 65 | 114 | 1.7 | 2.6 | 0.00 | 0.00 | 0.00 | 81 | 1016.1 |
| 20260507015054 | 64 | 111 | 1.7 | 2.6 | 0.00 | 0.00 | 0.00 | 84 | 1016.1 |
| 20260507014059 | 65 | 114 | 1.7 | 2.6 | 0.00 | 0.00 | 0.00 | 82 | 1016.0 |
| 20260507013038 | 65 | 124 | 0.9 | 2.6 | 0.00 | 0.00 | 0.00 | 83 | 1015.9 |
| 20260507012017 | 65 | 116 | 1.7 | 2.6 | 0.00 | 0.00 | 0.00 | 83 | 1015.9 |
| 20260507011039 | 65 | 123 | 2.6 | 3.5 | 0.00 | 0.00 | 0.00 | 83 | 1015.8 |
| 20260507010046 | 65 | 123 | 1.7 | 3.5 | 0.00 | 0.00 | 0.00 | 84 | 1015.8 |
| 20260507005616 | 65 | 116 | 0.9 | 3.5 | 0.00 | 0.00 | 0.00 | 83 | 1015.8 |
| 20260507004525 | 65 | 110 | 1.7 | 3.5 | 0.00 | 0.00 | 0.00 | 84 | 1015.8 |
| 20260507003538 | 65 | 123 | 1.7 | 4.3 | 0.00 | 0.00 | 0.00 | 84 | 1015.8 |
| 20260507002527 | 65 | 120 | 2.6 | 5.2 | 0.00 | 0.00 | 0.00 | 83 | 1015.7 |
| 20260507001523 | 65 | 132 | 1.7 | 4.3 | 0.00 | 0.00 | 0.00 | 84 | 1015.7 |
| 20260507000554 | 65 | 124 | 2.6 | 4.3 | 0.00 | 0.00 | 0.00 | 82 | 1015.7 |
| 20260506235702 | 66 | 127 | 1.7 | 3.5 | 0.00 | 0.00 | 0.00 | 81 | 1015.7 |
| 20260506234604 | 66 | 125 | 2.6 | 4.3 | 0.00 | 0.00 | 0.00 | 81 | 1015.7 |
| 20260506233610 | 65 | 107 | 1.7 | 3.5 | 0.00 | 0.00 | 0.00 | 81 | 1015.7 |
| 20260506232549 | 65 | 111 | 2.6 | 4.3 | 0.00 | 0.00 | 0.00 | 82 | 1015.8 |
| 20260506231526 | 66 | 126 | 2.6 | 7.0 | 0.00 | 0.00 | 0.00 | 79 | 1015.9 |
| 20260506230552 | 66 | 118 | 1.7 | 3.5 | 0.00 | 0.00 | 0.00 | 80 | 1016.0 |
| 20260506225536 | 65 | 121 | 1.7 | 3.5 | 0.00 | 0.00 | 0.00 | 81 | 1016.1 |
| 20260506224524 | 66 | 125 | 1.7 | 4.3 | 0.00 | 0.00 | 0.00 | 80 | 1016.3 |
| 20260506223519 | 66 | 120 | 1.7 | 3.5 | 0.00 | 0.00 | 0.00 | 82 | 1016.4 |
| 20260506222610 | 65 | 124 | 1.7 | 3.5 | 0.00 | 0.00 | 0.00 | 82 | 1016.5 |
| 20260506221556 | 66 | 117 | 1.7 | 3.5 | 0.00 | 0.00 | 0.00 | 81 | 1016.6 |
| 20260506220553 | 66 | 116 | 1.7 | 3.5 | 0.00 | 0.00 | 0.00 | 81 | 1016.8 |
| 20260506215606 | 66 | 122 | 1.7 | 4.3 | 0.00 | 0.00 | 0.00 | 81 | 1017.0 |
| 20260506214538 | 66 | 112 | 1.7 | 3.5 | 0.00 | 0.00 | 0.00 | 80 | 1017.0 |
| 20260506213607 | 66 | 131 | 1.7 | 4.3 | 0.00 | 0.00 | 0.00 | 79 | 1017.1 |
| 20260506212558 | 67 | 121 | 1.7 | 3.5 | 0.00 | 0.00 | 0.00 | 78 | 1017.2 |
| 20260506211525 | 66 | 128 | 1.7 | 2.6 | 0.00 | 0.00 | 0.00 | 78 | 1017.3 |
| 20260506210548 | 66 | 113 | 1.7 | 3.5 | 0.00 | 0.00 | 0.00 | 77 | 1017.4 |
| 20260506205622 | 66 | 111 | 1.7 | 3.5 | 0.00 | 0.00 | 0.00 | 76 | 1017.5 |
| 20260506204531 | 66 | 118 | 0.9 | 2.6 | 0.00 | 0.00 | 0.00 | 77 | 1017.5 |
| 20260506203612 | 65 | 121 | 1.7 | 2.6 | 0.00 | 0.00 | 0.00 | 80 | 1017.6 |
| 20260506202550 | 65 | 116 | 1.7 | 3.5 | 0.00 | 0.00 | 0.00 | 80 | 1017.7 |
| 20260506201547 | 65 | 123 | 1.7 | 3.5 | 0.00 | 0.00 | 0.00 | 79 | 1017.9 |
| 20260506200553 | 65 | 115 | 1.7 | 2.6 | 0.00 | 0.00 | 0.00 | 80 | 1018.0 |
| 20260506195521 | 65 | 109 | 2.6 | 3.5 | 0.00 | 0.00 | 0.00 | 80 | 1018.1 |
| 20260506194517 | 65 | 110 | 1.7 | 2.6 | 0.00 | 0.00 | 0.00 | 79 | 1018.2 |
| 20260506193541 | 66 | 131 | 1.7 | 2.6 | 0.00 | 0.00 | 0.00 | 79 | 1018.3 |
| 20260506192548 | 65 | 121 | 1.7 | 2.6 | 0.00 | 0.00 | 0.00 | 79 | 1018.4 |
| 20260506191617 | 66 | 125 | 1.7 | 3.5 | 0.00 | 0.00 | 0.00 | 78 | 1018.5 |
| 20260506190520 | 65 | 119 | 1.7 | 2.6 | 0.00 | 0.00 | 0.00 | 80 | 1018.6 |
| 20260506185536 | 64 | 118 | 1.7 | 2.6 | 0.00 | 0.00 | 0.00 | 82 | 1018.7 |
| 20260506184531 | 65 | 118 | 1.7 | 2.6 | 0.00 | 0.00 | 0.00 | 81 | 1018.7 |
| 20260506183602 | 64 | 125 | 1.7 | 2.6 | 0.00 | 0.00 | 0.00 | 83 | 1018.8 |
| 20260506182531 | 65 | 125 | 1.7 | 2.6 | 0.00 | 0.00 | 0.00 | 82 | 1018.8 |
| 20260506181611 | 64 | 119 | 1.7 | 3.5 | 0.00 | 0.00 | 0.00 | 83 | 1018.8 |
| 20260506180620 | 64 | 112 | 0.9 | 1.7 | 0.00 | 0.00 | 0.00 | 83 | 1018.8 |
| 20260506175522 | 64 | 120 | 1.7 | 2.6 | 0.00 | 0.00 | 0.00 | 83 | 1018.8 |
| 20260506174543 | 64 | 117 | 1.7 | 2.6 | 0.00 | 0.00 | 0.00 | 82 | 1018.8 |
| 20260506173542 | 64 | 115 | 1.7 | 3.5 | 0.00 | 0.00 | 0.00 | 82 | 1018.7 |
| 20260506172527 | 64 | 117 | 1.7 | 2.6 | 0.00 | 0.00 | 0.00 | 81 | 1018.7 |
| 20260506171532 | 63 | 118 | 1.7 | 2.6 | 0.00 | 0.00 | 0.00 | 81 | 1018.7 |
| 20260506170527 | 63 | 113 | 0.9 | 2.6 | 0.00 | 0.00 | 0.00 | 81 | 1018.7 |
| 20260506165559 | 63 | 113 | 0.9 | 1.7 | 0.00 | 0.00 | 0.00 | 81 | 1018.6 |
| 20260506164605 | 63 | 111 | 1.7 | 2.6 | 0.00 | 0.00 | 0.00 | 81 | 1018.6 |
| 20260506163525 | 63 | 119 | 1.7 | 1.7 | 0.00 | 0.00 | 0.00 | 80 | 1018.6 |
| 20260506162557 | 62 | 118 | 0.9 | 1.7 | 0.00 | 0.00 | 0.00 | 81 | 1018.5 |
| 20260506161536 | 63 | 109 | 0.9 | 1.7 | 0.00 | 0.00 | 0.00 | 80 | 1018.5 |
| 20260506160541 | 63 | 110 | 0.9 | 1.7 | 0.00 | 0.00 | 0.00 | 79 | 1018.5 |
| 20260506155623 | 63 | 104 | 0.9 | 0.9 | 0.00 | 0.00 | 0.00 | 79 | 1018.6 |
| 20260506154608 | 62 | 107 | 0.0 | 1.7 | 0.00 | 0.00 | 0.00 | 79 | 1018.6 |
| 20260506153555 | 62 | 113 | 0.9 | 0.9 | 0.00 | 0.00 | 0.00 | 80 | 1018.6 |
| 20260506152517 | 61 | 60 | 0.0 | 0.9 | 0.00 | 0.00 | 0.00 | 81 | 1018.6 |
| 20260506151625 | 61 | 116 | 0.0 | 0.9 | 0.00 | 0.00 | 0.00 | 82 | 1018.7 |
| 20260506150518 | 60 | 73 | 0.0 | 0.9 | 0.00 | 0.00 | 0.00 | 82 | 1018.6 |
| 20260506145540 | 59 | 97 | 0.0 | 0.9 | 0.00 | 0.00 | 0.00 | 83 | 1018.6 |
| 20260506144519 | 59 | 102 | 0.0 | 0.9 | 0.00 | 0.00 | 0.00 | 83 | 1018.6 |
| 20260506143542 | 58 | 75 | 0.0 | 0.9 | 0.00 | 0.00 | 0.00 | 84 | 1018.6 |
| 20260506142548 | 57 | 104 | 0.0 | 0.9 | 0.00 | 0.00 | 0.00 | 85 | 1018.4 |
| 20260506141601 | 57 | 0.0 | 0.9 | 0.00 | 0.00 | 0.00 | 86 | 1018.4 | |
| 20260506140606 | 57 | 0.0 | 0.9 | 0.00 | 0.00 | 0.00 | 87 | 1018.4 | |
| 20260506135536 | 56 | 94 | 0.0 | 0.9 | 0.00 | 0.00 | 0.00 | 88 | 1018.4 |
| 20260506134607 | 56 | 58 | 0.0 | 0.9 | 0.00 | 0.00 | 0.00 | 88 | 1018.3 |
| 20260506133554 | 56 | 90 | 0.0 | 0.9 | 0.00 | 0.00 | 0.00 | 88 | 1018.2 |
| 20260506132607 | 55 | 100 | 0.0 | 0.9 | 0.00 | 0.00 | 0.00 | 88 | 1018.0 |
| 20260506131521 | 55 | 111 | 0.0 | 0.9 | 0.00 | 0.00 | 0.00 | 88 | 1017.9 |
| 20260506130620 | 55 | 68 | 0.0 | 0.9 | 0.00 | 0.00 | 0.00 | 87 | 1017.8 |
| 20260506125605 | 56 | 78 | 0.0 | 0.9 | 0.00 | 0.00 | 0.00 | 87 | 1017.7 |
| 20260506124526 | 55 | 0.0 | 0.9 | 0.00 | 0.00 | 0.00 | 87 | 1017.6 | |
| 20260506123532 | 56 | 98 | 0.0 | 0.9 | 0.00 | 0.00 | 0.00 | 88 | 1017.5 |
| 20260506122555 | 56 | 76 | 0.0 | 0.9 | 0.00 | 0.00 | 0.00 | 88 | 1017.6 |
| 20260506121609 | 56 | 0.0 | 0.9 | 0.00 | 0.00 | 0.00 | 88 | 1017.5 | |
| 20260506120556 | 56 | 99 | 0.0 | 0.9 | 0.00 | 0.00 | 0.00 | 89 | 1017.5 |
| 20260506115551 | 56 | 0.0 | 0.9 | 0.00 | 0.00 | 0.00 | 90 | 1017.4 | |
| 20260506114550 | 56 | 95 | 0.0 | 0.9 | 0.00 | 0.00 | 0.00 | 91 | 1017.4 |
| 20260506113536 | 57 | 0.0 | 0.9 | 0.00 | 0.00 | 0.00 | 91 | 1017.3 | |
| 20260506112607 | 57 | 106 | 0.0 | 0.9 | 0.00 | 0.00 | 0.00 | 91 | 1017.3 |
| 20260506111528 | 58 | 97 | 0.0 | 0.9 | 0.00 | 0.00 | 0.00 | 91 | 1017.2 |
| 20260506110620 | 58 | 98 | 0.0 | 0.9 | 0.00 | 0.00 | 0.00 | 90 | 1017.3 |
| 20260506105627 | 58 | 102 | 0.9 | 0.9 | 0.00 | 0.00 | 0.00 | 90 | 1017.3 |
| 20260506104534 | 58 | 99 | 0.9 | 0.9 | 0.00 | 0.00 | 0.00 | 90 | 1017.3 |
| 20260506103521 | 59 | 98 | 0.9 | 0.9 | 0.00 | 0.00 | 0.00 | 90 | 1017.3 |
| 20260506102547 | 59 | 100 | 0.9 | 0.9 | 0.00 | 0.00 | 0.00 | 90 | 1017.3 |
| 20260506101550 | 59 | 104 | 0.9 | 1.7 | 0.00 | 0.00 | 0.00 | 89 | 1017.2 |
| 20260506100603 | 59 | 103 | 0.9 | 1.7 | 0.00 | 0.00 | 0.00 | 89 | 1017.3 |
| 20260506095551 | 59 | 102 | 0.9 | 1.7 | 0.00 | 0.00 | 0.00 | 89 | 1017.3 |
| 20260506094530 | 59 | 101 | 0.9 | 1.7 | 0.00 | 0.00 | 0.00 | 89 | 1017.4 |
| 20260506093624 | 59 | 100 | 0.9 | 1.7 | 0.00 | 0.00 | 0.00 | 90 | 1017.4 |
| 20260506092633 | 59 | 110 | 0.9 | 2.6 | 0.00 | 0.00 | 0.00 | 90 | 1017.4 |
| 20260506091518 | 59 | 109 | 0.9 | 1.7 | 0.00 | 0.00 | 0.00 | 90 | 1017.4 |
| 20260506090531 | 59 | 104 | 0.9 | 1.7 | 0.00 | 0.00 | 0.00 | 91 | 1017.5 |
| 20260506085547 | 59 | 106 | 0.9 | 1.7 | 0.00 | 0.01 | 0.00 | 91 | 1017.6 |
| 20260506084534 | 59 | 106 | 0.9 | 1.7 | 0.00 | 0.01 | 0.00 | 91 | 1017.6 |
| 20260506083614 | 59 | 104 | 0.9 | 1.7 | 0.00 | 0.02 | 0.00 | 90 | 1017.7 |
| 20260506082517 | 59 | 106 | 0.9 | 1.7 | 0.00 | 0.02 | 0.00 | 90 | 1017.7 |
| 20260506081626 | 59 | 99 | 0.9 | 1.7 | 0.00 | 0.02 | 0.00 | 89 | 1017.8 |
| 20260506080535 | 59 | 102 | 0.9 | 1.7 | 0.00 | 0.02 | 0.00 | 88 | 1017.8 |